Time;durP1;ratioP1;P1;durP2;ratioP2;P2;SDS_P1;SDS_P2;PMS_P1;PMS_P2;Temp;Humidity;BMP_temperature;BMP_pressure;BME280_temperature;BME280_humidity;BME280_pressure;Samples;Min_cycle;Max_cycle;Signal;HPM_P1;HPM_P2
2023/02/26 00:02:03;;;;;;;2.93;2.63;;;2.10;1.00;;;;;;5054466;28;20261;-54
2023/02/26 00:04:29;;;;;;;3.67;2.33;;;2.10;1.00;;;;;;5044061;28;20218;-54
2023/02/26 00:06:55;;;;;;;3.40;3.00;;;2.20;1.00;;;;;;5059008;28;20189;-53
2023/02/26 00:09:21;;;;;;;3.17;2.97;;;2.30;1.00;;;;;;5046367;28;20192;-53
2023/02/26 00:11:48;;;;;;;6.40;3.80;;;2.30;1.00;;;;;;5055924;28;20198;-54
2023/02/26 00:14:15;;;;;;;3.83;2.93;;;2.10;1.00;;;;;;5057857;28;20455;-53
2023/02/26 00:16:41;;;;;;;2.70;2.50;;;2.10;1.00;;;;;;5061956;28;20465;-53
2023/02/26 00:19:09;;;;;;;3.40;2.97;;;2.20;1.00;;;;;;5065543;28;20433;-53
2023/02/26 00:21:35;;;;;;;4.70;2.73;;;2.20;1.00;;;;;;5054281;28;20793;-55
2023/02/26 00:24:01;;;;;;;3.63;2.80;;;2.20;1.00;;;;;;5054174;28;20542;-54
2023/02/26 00:26:29;;;;;;;2.83;2.63;;;2.10;1.00;;;;;;5060417;28;20949;-54
2023/02/26 00:28:55;;;;;;;2.57;2.37;;;2.00;1.00;;;;;;5052392;28;20570;-54
2023/02/26 00:31:23;;;;;;;3.93;2.83;;;2.10;1.00;;;;;;5056352;28;20951;-52
2023/02/26 00:33:49;;;;;;;3.63;2.57;;;2.00;1.00;;;;;;5054928;28;20540;-54
2023/02/26 00:36:49;;;;;;;2.90;2.70;;;2.00;1.00;;;;;;5056550;28;20897;-53
2023/02/26 00:39:34;;;;;;;2.90;2.00;;;2.00;1.00;;;;;;5044377;28;20445;-55
2023/02/26 00:41:59;;;;;;;3.50;2.93;;;1.90;1.00;;;;;;5053540;28;20535;-54
2023/02/26 00:44:25;;;;;;;5.23;2.30;;;1.90;1.00;;;;;;5065468;28;20530;-53
2023/02/26 00:46:59;;;;;;;3.37;2.43;;;2.00;1.00;;;;;;5061479;28;20181;-53
2023/02/26 00:49:41;;;;;;;3.50;2.60;;;2.00;1.00;;;;;;5059729;28;20476;-54
2023/02/26 00:52:14;;;;;;;1.83;1.73;;;2.00;1.00;;;;;;5049561;28;20470;-53
2023/02/26 00:54:39;;;;;;;2.30;2.10;;;1.90;1.00;;;;;;5048071;28;20443;-54
2023/02/26 00:57:05;;;;;;;3.10;1.97;;;2.00;1.00;;;;;;5057841;28;20500;-56
2023/02/26 00:59:31;;;;;;;4.30;2.07;;;2.00;1.00;;;;;;5055463;28;20242;-54
2023/02/26 01:01:57;;;;;;;2.13;2.00;;;2.00;1.00;;;;;;5064928;28;20437;-53
2023/02/26 01:04:23;;;;;;;2.30;2.10;;;2.00;1.00;;;;;;5050211;28;20257;-53
2023/02/26 01:06:54;;;;;;;2.43;2.23;;;2.10;1.00;;;;;;5054063;28;20180;-53
2023/02/26 01:09:27;;;;;;;2.00;1.90;;;1.90;1.00;;;;;;5050589;28;20446;-54
2023/02/26 01:11:56;;;;;;;2.83;2.00;;;1.90;1.00;;;;;;5056902;28;20465;-55
2023/02/26 01:14:23;;;;;;;2.97;2.33;;;1.90;1.00;;;;;;5051913;28;20852;-53
2023/02/26 01:17:19;;;;;;;2.40;2.20;;;1.90;1.00;;;;;;5056650;28;20556;-53
2023/02/26 01:19:56;;;;;;;1.97;1.87;;;1.80;1.00;;;;;;5053001;28;20449;-54
2023/02/26 01:22:28;;;;;;;2.90;1.83;;;1.80;1.00;;;;;;5052135;28;20941;-53
2023/02/26 01:25:09;;;;;;;4.90;2.80;;;1.90;1.00;;;;;;5057005;28;20954;-54
2023/02/26 01:27:34;;;;;;;2.93;2.30;;;1.90;1.00;;;;;;5049995;28;20458;-54
2023/02/26 01:30:00;;;;;;;4.87;2.70;;;2.00;1.00;;;;;;5058038;28;20510;-52
2023/02/26 01:32:32;;;;;;;4.50;2.30;;;2.00;1.00;;;;;;5054232;28;20197;-54
2023/02/26 01:35:26;;;;;;;2.50;2.30;;;2.00;1.00;;;;;;5054472;28;20460;-53
2023/02/26 01:38:27;;;;;;;2.40;2.20;;;1.90;1.00;;;;;;5056079;28;20987;-54
2023/02/26 01:40:58;;;;;;;2.57;2.37;;;1.90;1.00;;;;;;5051796;28;20447;-56
2023/02/26 01:43:34;;;;;;;3.00;2.67;;;1.90;1.00;;;;;;5053752;28;20450;-53
2023/02/26 01:46:14;;;;;;;3.40;2.53;;;1.80;1.00;;;;;;5056925;28;20495;-52
2023/02/26 01:48:57;;;;;;;2.40;2.20;;;1.90;1.00;;;;;;5055684;28;20476;-54
2023/02/26 01:51:52;;;;;;;3.63;2.77;;;2.00;1.00;;;;;;5052917;28;20477;-54
2023/02/26 01:54:21;;;;;;;2.63;2.47;;;2.10;1.00;;;;;;5056354;28;20478;-54
2023/02/26 01:56:54;;;;;;;5.67;2.87;;;2.10;1.00;;;;;;5052843;28;20819;-54
2023/02/26 01:59:23;;;;;;;3.20;2.73;;;2.00;1.00;;;;;;5055091;28;20455;-53
2023/02/26 02:01:53;;;;;;;3.40;3.00;;;2.00;1.00;;;;;;5046531;28;20850;-53
2023/02/26 02:04:19;;;;;;;3.30;2.97;;;2.10;1.00;;;;;;5054252;28;20565;-53
2023/02/26 02:06:46;;;;;;;3.20;2.90;;;2.20;1.00;;;;;;5051057;28;20532;-53
2023/02/26 02:09:12;;;;;;;4.37;3.27;;;2.00;1.00;;;;;;5054074;28;20503;-52
2023/02/26 02:11:53;;;;;;;3.80;3.37;;;1.90;1.00;;;;;;5052578;28;20453;-54
2023/02/26 02:14:32;;;;;;;3.40;2.87;;;2.00;1.00;;;;;;5049179;28;20460;-52
2023/02/26 02:17:22;;;;;;;2.80;2.60;;;2.10;1.00;;;;;;5049582;28;20462;-53
2023/02/26 02:20:16;;;;;;;3.63;3.20;;;2.00;1.00;;;;;;5054674;28;20441;-55
2023/02/26 02:23:00;;;;;;;3.53;2.70;;;2.20;1.00;;;;;;5052599;28;20600;-54
2023/02/26 02:25:54;;;;;;;3.80;3.50;;;2.20;1.00;;;;;;5066461;28;20434;-53
2023/02/26 02:28:41;;;;;;;3.90;3.60;;;2.50;1.00;;;;;;5053593;28;20442;-54
2023/02/26 02:31:31;;;;;;;3.33;3.03;;;2.20;1.00;;;;;;5063585;28;20445;-53
2023/02/26 02:34:15;;;;;;;3.63;3.23;;;2.30;1.00;;;;;;5050175;28;20447;-53
2023/02/26 02:36:48;;;;;;;3.03;2.73;;;2.40;1.00;;;;;;5056716;28;20478;-54
2023/02/26 02:39:37;;;;;;;3.50;3.20;;;2.30;1.00;;;;;;5040431;28;20449;-53
2023/02/26 02:42:08;;;;;;;4.03;3.60;;;2.30;1.00;;;;;;5048907;28;21047;-53
2023/02/26 02:44:40;;;;;;;4.17;3.77;;;2.20;1.00;;;;;;5052362;28;20478;-54
2023/02/26 02:47:10;;;;;;;3.60;3.30;;;2.20;1.00;;;;;;5056792;28;20518;-54
2023/02/26 02:49:45;;;;;;;3.20;2.90;;;2.20;1.00;;;;;;5047806;28;20514;-53
2023/02/26 02:52:25;;;;;;;4.73;3.57;;;2.10;1.00;;;;;;5050692;28;20506;-54
2023/02/26 02:55:05;;;;;;;3.60;3.27;;;2.10;1.00;;;;;;5052903;28;20949;-53
2023/02/26 02:57:38;;;;;;;4.43;4.03;;;2.40;1.00;;;;;;5050886;28;20465;-53
2023/02/26 03:00:09;;;;;;;5.30;4.07;;;2.30;1.00;;;;;;5049151;28;20454;-54
2023/02/26 03:03:05;;;;;;;5.33;4.80;;;2.20;1.00;;;;;;5052476;28;20574;-53
2023/02/26 03:05:31;;;;;;;5.27;3.93;;;2.30;1.00;;;;;;5050695;28;20467;-53
2023/02/26 03:08:01;;;;;;;5.53;3.80;;;2.30;1.00;;;;;;5049592;28;20958;-53
2023/02/26 03:10:28;;;;;;;4.27;3.87;;;2.30;1.00;;;;;;5042504;28;20331;-54
2023/02/26 03:12:53;;;;;;;4.10;3.30;;;2.30;1.00;;;;;;5052359;28;20481;-53
2023/02/26 03:15:45;;;;;;;5.30;4.00;;;2.40;1.00;;;;;;5056320;28;20572;-53
2023/02/26 03:18:43;;;;;;;3.73;3.43;;;2.20;1.00;;;;;;5052939;28;20607;-52
2023/02/26 03:21:16;;;;;;;3.40;3.10;;;2.20;1.00;;;;;;5023924;28;20457;-53
2023/02/26 03:23:53;;;;;;;4.57;3.30;;;2.30;1.00;;;;;;5054739;28;20500;-53
2023/02/26 03:26:28;;;;;;;4.40;3.60;;;2.30;1.00;;;;;;5051008;28;20450;-53
2023/02/26 03:29:11;;;;;;;3.70;3.40;;;2.30;1.00;;;;;;5052439;28;20441;-53
2023/02/26 03:31:58;;;;;;;3.93;2.70;;;2.30;1.00;;;;;;5057338;28;20449;-53
2023/02/26 03:34:41;;;;;;;3.50;3.20;;;2.50;1.00;;;;;;5053063;28;20438;-53
2023/02/26 03:37:26;;;;;;;2.80;2.60;;;2.40;1.00;;;;;;5047614;28;20477;-53
2023/02/26 03:39:55;;;;;;;3.40;3.10;;;2.40;1.00;;;;;;5048723;28;20494;-55
2023/02/26 03:42:29;;;;;;;3.30;3.10;;;2.40;1.00;;;;;;5052154;28;20439;-54
2023/02/26 03:44:59;;;;;;;3.30;3.00;;;2.40;1.00;;;;;;5056893;28;20445;-52
2023/02/26 03:47:26;;;;;;;5.43;3.50;;;2.40;1.00;;;;;;5056201;28;20505;-54
2023/02/26 03:50:02;;;;;;;3.43;3.10;;;2.40;1.00;;;;;;5052586;28;20443;-54
2023/02/26 03:52:31;;;;;;;3.37;3.07;;;2.50;1.00;;;;;;5052655;28;20810;-53
2023/02/26 03:55:21;;;;;;;3.50;2.93;;;2.50;1.00;;;;;;5052257;28;20450;-53
2023/02/26 03:57:48;;;;;;;4.83;3.00;;;2.60;1.00;;;;;;5046341;28;20469;-53
2023/02/26 04:00:16;;;;;;;3.73;3.30;;;2.60;1.00;;;;;;5052775;28;20787;-53
2023/02/26 04:02:45;;;;;;;2.83;2.63;;;2.50;1.00;;;;;;5055342;28;20594;-54
2023/02/26 04:05:18;;;;;;;3.13;2.53;;;2.60;1.00;;;;;;5048402;28;20946;-53
2023/02/26 04:07:46;;;;;;;3.40;2.70;;;2.60;1.00;;;;;;5045933;28;20468;-53
2023/02/26 04:10:16;;;;;;;3.70;3.07;;;2.50;1.00;;;;;;5038391;28;20458;-54
2023/02/26 04:12:42;;;;;;;3.20;2.93;;;2.50;1.00;;;;;;5053940;28;20453;-54
2023/02/26 04:15:08;;;;;;;3.23;2.93;;;2.60;1.00;;;;;;5046382;28;20999;-54
2023/02/26 04:17:34;;;;;;;3.77;3.17;;;2.60;1.00;;;;;;5057010;28;20542;-53
2023/02/26 04:19:59;;;;;;;3.73;3.43;;;2.60;1.00;;;;;;5047645;28;20484;-54
2023/02/26 04:22:25;;;;;;;8.13;3.40;;;2.70;1.00;;;;;;5055682;28;20185;-54
2023/02/26 04:24:51;;;;;;;3.50;3.10;;;2.70;1.00;;;;;;5054930;28;20590;-53
2023/02/26 04:27:16;;;;;;;3.17;2.80;;;2.60;1.00;;;;;;5051509;28;20469;-53
2023/02/26 04:29:42;;;;;;;4.63;3.60;;;2.60;1.00;;;;;;5051601;28;20195;-54
2023/02/26 04:32:08;;;;;;;3.33;2.93;;;2.50;1.00;;;;;;5060730;28;20184;-53
2023/02/26 04:34:33;;;;;;;3.47;3.17;;;2.40;1.00;;;;;;5050436;28;20301;-53
2023/02/26 04:36:59;;;;;;;3.00;2.80;;;2.40;1.00;;;;;;5060051;28;20592;-54
2023/02/26 04:39:24;;;;;;;5.50;3.13;;;2.40;1.00;;;;;;5060931;28;20195;-53
2023/02/26 04:41:50;;;;;;;3.53;2.90;;;2.40;1.00;;;;;;5062284;28;20206;-54
2023/02/26 04:44:16;;;;;;;3.30;2.50;;;2.50;1.00;;;;;;5056134;28;20549;-54
2023/02/26 04:46:41;;;;;;;5.30;3.20;;;2.40;1.00;;;;;;5054022;28;20281;-54
2023/02/26 04:49:07;;;;;;;2.90;2.53;;;2.50;1.00;;;;;;5059028;28;20201;-54
2023/02/26 04:51:33;;;;;;;2.33;2.13;;;2.50;1.00;;;;;;5050068;28;20341;-54
2023/02/26 04:53:58;;;;;;;2.37;2.20;;;2.60;1.00;;;;;;5056171;28;20233;-54
2023/02/26 04:56:25;;;;;;;3.53;2.27;;;2.50;1.00;;;;;;5054236;28;20203;-54
2023/02/26 04:58:50;;;;;;;4.40;2.93;;;2.40;1.00;;;;;;5064111;28;20199;-54
2023/02/26 05:01:16;;;;;;;2.93;2.70;;;2.40;1.00;;;;;;5059303;28;20446;-54
2023/02/26 05:03:41;;;;;;;2.43;1.93;;;2.30;1.00;;;;;;5057534;28;20197;-54
2023/02/26 05:06:07;;;;;;;3.37;2.00;;;2.40;1.00;;;;;;5050902;28;20187;-53
2023/02/26 05:08:33;;;;;;;3.03;2.57;;;2.50;1.00;;;;;;5050033;28;20222;-53
2023/02/26 05:10:58;;;;;;;2.77;2.13;;;2.40;1.00;;;;;;5060761;28;20247;-55
2023/02/26 05:13:25;;;;;;;2.33;2.10;;;2.50;1.00;;;;;;5052504;28;20201;-54
2023/02/26 05:15:53;;;;;;;2.90;1.90;;;2.50;1.00;;;;;;5054478;28;20210;-53
2023/02/26 05:18:19;;;;;;;2.50;2.00;;;2.60;1.00;;;;;;5056630;28;20972;-55
2023/02/26 05:20:44;;;;;;;2.83;2.63;;;2.60;1.00;;;;;;5042296;28;20442;-55
2023/02/26 05:23:10;;;;;;;3.87;2.50;;;2.60;1.00;;;;;;5052986;28;20213;-53
2023/02/26 05:25:36;;;;;;;5.67;2.57;;;2.60;1.00;;;;;;5050574;28;20241;-54
2023/02/26 05:28:01;;;;;;;3.90;2.03;;;2.70;1.00;;;;;;5049059;28;20268;-53
2023/02/26 05:30:27;;;;;;;5.17;2.17;;;2.70;1.00;;;;;;5054252;28;20266;-54
2023/02/26 05:32:53;;;;;;;2.20;1.93;;;2.60;1.00;;;;;;5054702;28;20196;-53
2023/02/26 05:35:19;;;;;;;2.20;1.83;;;2.60;1.00;;;;;;5058041;28;20820;-54
2023/02/26 05:37:44;;;;;;;3.73;2.20;;;2.60;1.00;;;;;;5055618;28;20485;-53
2023/02/26 05:40:11;;;;;;;3.17;2.33;;;2.60;1.00;;;;;;5053519;28;20184;-54
2023/02/26 05:42:38;;;;;;;2.33;1.80;;;2.60;1.00;;;;;;5051520;28;20215;-54
2023/02/26 05:45:05;;;;;;;2.87;2.67;;;2.50;1.00;;;;;;5066279;28;20511;-54
2023/02/26 05:47:34;;;;;;;2.90;2.27;;;2.50;1.00;;;;;;5052170;28;20966;-52
2023/02/26 05:50:00;;;;;;;2.47;2.27;;;2.50;1.00;;;;;;5056970;28;20454;-54
2023/02/26 05:52:26;;;;;;;3.80;2.40;;;2.40;1.00;;;;;;5052864;28;20477;-53
2023/02/26 05:54:52;;;;;;;5.00;2.73;;;2.40;1.00;;;;;;5053597;28;20761;-52
2023/02/26 05:57:17;;;;;;;2.40;2.20;;;2.50;1.00;;;;;;5062241;28;20556;-54
2023/02/26 05:59:43;;;;;;;3.23;2.30;;;2.50;1.00;;;;;;5051829;28;20214;-54
2023/02/26 06:02:08;;;;;;;5.50;2.83;;;2.50;1.00;;;;;;5054754;28;20788;-55
2023/02/26 06:04:34;;;;;;;3.97;2.90;;;2.40;1.00;;;;;;5061357;28;20209;-54
2023/02/26 06:07:00;;;;;;;3.40;2.70;;;2.50;1.00;;;;;;5047273;28;20548;-54
2023/02/26 06:09:26;;;;;;;8.57;2.93;;;2.50;1.00;;;;;;5048620;28;20195;-55
2023/02/26 06:11:51;;;;;;;3.93;3.10;;;2.40;1.00;;;;;;5048035;28;20446;-54
2023/02/26 06:14:17;;;;;;;3.27;2.87;;;2.40;1.00;;;;;;5052850;28;20213;-54
2023/02/26 06:16:43;;;;;;;3.10;2.83;;;2.40;1.00;;;;;;5049827;28;20673;-55
2023/02/26 06:19:08;;;;;;;3.70;3.40;;;2.40;1.00;;;;;;5062279;28;20188;-54
2023/02/26 06:21:34;;;;;;;3.57;3.27;;;2.50;1.00;;;;;;5054490;28;20809;-54
2023/02/26 06:23:59;;;;;;;4.20;3.27;;;2.60;1.00;;;;;;5050398;28;20187;-53
2023/02/26 06:26:25;;;;;;;2.90;2.60;;;2.60;1.00;;;;;;5051855;28;20907;-54
2023/02/26 06:28:51;;;;;;;6.27;3.27;;;2.60;1.00;;;;;;5062891;28;20187;-54
2023/02/26 06:31:16;;;;;;;4.23;3.83;;;2.50;1.00;;;;;;5056797;28;20278;-54
2023/02/26 06:33:42;;;;;;;4.40;2.80;;;2.50;1.00;;;;;;5055758;28;20198;-54
2023/02/26 06:36:08;;;;;;;3.30;2.53;;;2.50;1.00;;;;;;5057953;28;20222;-54
2023/02/26 06:38:33;;;;;;;3.70;2.97;;;2.50;1.00;;;;;;5050762;28;20222;-54
2023/02/26 06:40:59;;;;;;;3.87;3.57;;;2.50;1.00;;;;;;5053846;28;20648;-53
2023/02/26 06:43:24;;;;;;;6.43;4.90;;;2.50;1.00;;;;;;5055170;28;20187;-54
2023/02/26 06:45:50;;;;;;;4.60;3.43;;;2.60;1.00;;;;;;5049494;28;20184;-54
2023/02/26 06:48:16;;;;;;;5.10;3.90;;;2.70;1.00;;;;;;5048398;28;20183;-54
2023/02/26 06:50:41;;;;;;;2.80;2.60;;;2.70;1.00;;;;;;5053613;28;20301;-54
2023/02/26 06:53:07;;;;;;;3.67;3.20;;;2.80;1.00;;;;;;5055983;28;20307;-55
2023/02/26 06:55:32;;;;;;;3.80;2.43;;;2.80;1.00;;;;;;5053707;28;20196;-53
2023/02/26 06:57:58;;;;;;;3.57;3.03;;;2.90;1.00;;;;;;5051530;28;20647;-54
2023/02/26 07:00:24;;;;;;;3.03;2.43;;;2.90;1.00;;;;;;5055882;28;20202;-54
2023/02/26 07:02:51;;;;;;;3.90;2.60;;;3.00;1.00;;;;;;5055861;28;20215;-54
2023/02/26 07:05:17;;;;;;;4.13;3.53;;;3.00;1.00;;;;;;5050523;28;20455;-54
2023/02/26 07:07:43;;;;;;;7.07;3.30;;;3.00;1.00;;;;;;5053241;28;20447;-53
2023/02/26 07:10:11;;;;;;;3.03;2.60;;;3.00;1.00;;;;;;5051769;28;20450;-54
2023/02/26 07:12:37;;;;;;;6.13;3.30;;;3.10;1.00;;;;;;5057337;28;20421;-54
2023/02/26 07:15:04;;;;;;;5.90;2.80;;;3.20;1.00;;;;;;5047147;28;20449;-54
2023/02/26 07:17:30;;;;;;;8.47;2.97;;;3.00;1.00;;;;;;5053716;28;20544;-54
2023/02/26 07:19:55;;;;;;;3.93;2.70;;;3.10;1.00;;;;;;5055145;28;20557;-55
2023/02/26 07:22:21;;;;;;;3.67;2.60;;;3.10;1.00;;;;;;5045523;28;20940;-54
2023/02/26 07:24:48;;;;;;;5.37;3.13;;;3.10;1.00;;;;;;5052251;28;20518;-54
2023/02/26 07:27:14;;;;;;;5.20;2.80;;;3.10;1.00;;;;;;5051204;28;20203;-55
2023/02/26 07:29:39;;;;;;;4.50;2.70;;;3.30;1.00;;;;;;5051022;28;21056;-54
2023/02/26 07:32:05;;;;;;;6.87;2.90;;;3.30;1.00;;;;;;5055268;28;20192;-53
2023/02/26 07:34:31;;;;;;;4.93;3.67;;;3.20;1.00;;;;;;5047020;28;20195;-53
2023/02/26 07:36:58;;;;;;;2.93;2.10;;;3.20;1.00;;;;;;5053046;28;20210;-56
2023/02/26 07:39:24;;;;;;;2.87;2.20;;;3.20;1.00;;;;;;5051181;28;20637;-54
2023/02/26 07:41:49;;;;;;;2.80;1.90;;;3.10;1.00;;;;;;5060273;28;20451;-53
2023/02/26 07:44:15;;;;;;;5.57;2.50;;;3.10;1.00;;;;;;5054566;28;20767;-56
2023/02/26 07:46:41;;;;;;;3.47;2.20;;;3.10;1.00;;;;;;5052619;28;20573;-55
2023/02/26 07:49:06;;;;;;;4.33;2.27;;;3.10;1.00;;;;;;5052713;28;20180;-54
2023/02/26 07:51:32;;;;;;;2.77;2.33;;;3.00;1.00;;;;;;5046254;28;20192;-53
2023/02/26 07:53:57;;;;;;;2.73;2.50;;;2.90;1.00;;;;;;5051621;28;20226;-53
2023/02/26 07:56:23;;;;;;;2.27;2.03;;;2.80;1.00;;;;;;5054997;28;20708;-54
2023/02/26 07:58:49;;;;;;;3.93;2.60;;;2.70;1.00;;;;;;5053035;28;20196;-54
2023/02/26 08:01:15;;;;;;;2.80;2.20;;;2.80;1.00;;;;;;5060838;28;20194;-54
2023/02/26 08:03:40;;;;;;;5.37;2.27;;;2.80;1.00;;;;;;5056468;28;20203;-55
2023/02/26 08:06:07;;;;;;;3.07;2.47;;;2.80;1.00;;;;;;5046342;28;20445;-55
2023/02/26 08:08:33;;;;;;;4.40;2.40;;;2.90;1.00;;;;;;5051554;28;20195;-53
2023/02/26 08:11:00;;;;;;;2.20;1.67;;;2.90;1.00;;;;;;5045116;28;20446;-54
2023/02/26 08:13:25;;;;;;;2.50;2.30;;;2.80;1.00;;;;;;5062491;28;20439;-54
2023/02/26 08:15:51;;;;;;;2.67;2.13;;;2.80;1.00;;;;;;5052685;28;20767;-54
2023/02/26 08:18:17;;;;;;;2.60;2.00;;;2.80;1.00;;;;;;5051919;28;20211;-54
2023/02/26 08:20:42;;;;;;;2.53;2.13;;;2.80;1.00;;;;;;5059410;28;20195;-54
2023/02/26 08:23:08;;;;;;;3.17;2.03;;;2.80;1.00;;;;;;5056764;28;20269;-56
2023/02/26 08:25:34;;;;;;;4.40;2.20;;;2.90;1.00;;;;;;5063046;28;20539;-57
2023/02/26 08:28:00;;;;;;;2.00;1.80;;;2.80;1.00;;;;;;5064593;28;20189;-54
2023/02/26 08:30:26;;;;;;;2.60;1.93;;;2.80;1.00;;;;;;5063293;28;20608;-53
2023/02/26 08:32:51;;;;;;;2.93;1.73;;;3.00;1.00;;;;;;5067197;28;20435;-55
2023/02/26 08:35:17;;;;;;;3.43;2.47;;;3.10;1.00;;;;;;5064345;28;20184;-54
2023/02/26 08:37:43;;;;;;;4.30;2.13;;;3.10;1.00;;;;;;5059104;28;20584;-54
2023/02/26 08:40:10;;;;;;;3.67;2.30;;;3.20;1.00;;;;;;5059710;28;20227;-52
2023/02/26 08:42:35;;;;;;;3.03;2.17;;;3.30;1.00;;;;;;5052311;28;20268;-53
2023/02/26 08:45:01;;;;;;;6.73;2.27;;;3.20;1.00;;;;;;5059567;28;20548;-57
2023/02/26 08:47:27;;;;;;;4.93;1.90;;;3.20;1.00;;;;;;5061079;28;20689;-55
2023/02/26 08:49:53;;;;;;;2.30;2.07;;;3.30;1.00;;;;;;5057934;28;20832;-54
2023/02/26 08:52:19;;;;;;;2.73;1.80;;;3.60;1.00;;;;;;5063332;28;20474;-56
2023/02/26 08:54:45;;;;;;;2.37;2.17;;;3.80;1.00;;;;;;5053442;28;20253;-54
2023/02/26 08:57:11;;;;;;;4.17;2.60;;;3.80;1.00;;;;;;5066416;28;20971;-55
2023/02/26 08:59:36;;;;;;;3.80;3.37;;;4.00;1.00;;;;;;5060647;28;20173;-54
2023/02/26 09:02:02;;;;;;;4.40;2.53;;;4.30;1.00;;;;;;5056756;28;20447;-55
2023/02/26 09:04:28;;;;;;;3.57;2.20;;;4.40;1.00;;;;;;5058887;28;20680;-57
2023/02/26 09:06:54;;;;;;;5.20;2.00;;;4.60;1.00;;;;;;5063267;28;20448;-55
2023/02/26 09:09:20;;;;;;;3.77;2.10;;;4.70;1.00;;;;;;5060524;28;20190;-56
2023/02/26 09:11:46;;;;;;;2.93;2.20;;;4.60;1.00;;;;;;5064926;28;20199;-55
2023/02/26 09:14:11;;;;;;;3.53;2.07;;;4.60;1.00;;;;;;5065828;28;20449;-55
2023/02/26 09:16:37;;;;;;;2.83;2.07;;;4.70;1.00;;;;;;5061336;28;20260;-55
2023/02/26 09:19:04;;;;;;;1.70;1.60;;;4.60;1.00;;;;;;5039976;28;20695;-54
2023/02/26 09:21:30;;;;;;;4.53;1.70;;;4.50;1.00;;;;;;5047822;28;20188;-52
2023/02/26 09:23:56;;;;;;;3.40;1.50;;;4.50;1.00;;;;;;5048470;28;20450;-55
2023/02/26 09:26:21;;;;;;;3.63;2.10;;;4.40;1.00;;;;;;5047889;28;20200;-54
2023/02/26 09:28:47;;;;;;;1.87;1.70;;;4.50;1.00;;;;;;5048221;28;20185;-54
2023/02/26 09:31:13;;;;;;;3.97;2.00;;;4.70;1.00;;;;;;5046061;28;20271;-53
2023/02/26 09:33:38;;;;;;;2.27;1.50;;;5.00;1.00;;;;;;5050845;28;20200;-53
2023/02/26 09:36:05;;;;;;;4.40;1.57;;;5.10;1.00;;;;;;5046917;28;20215;-53
2023/02/26 09:38:30;;;;;;;3.23;2.27;;;5.20;1.00;;;;;;5049572;28;20653;-54
2023/02/26 09:41:02;;;;;;;2.73;1.90;;;5.20;1.00;;;;;;5053406;28;20443;-53
2023/02/26 09:43:42;;;;;;;2.20;1.40;;;5.10;1.00;;;;;;5055738;28;20550;-54
2023/02/26 09:46:17;;;;;;;3.93;1.60;;;5.10;1.00;;;;;;5048990;28;20529;-57
2023/02/26 09:48:44;;;;;;;4.40;2.13;;;5.10;1.00;;;;;;5051909;28;20454;-53
2023/02/26 09:51:15;;;;;;;3.93;1.50;;;5.30;1.00;;;;;;5047011;28;20546;-54
2023/02/26 09:53:43;;;;;;;1.70;1.60;;;5.20;1.00;;;;;;5049122;28;20470;-55
2023/02/26 09:56:38;;;;;;;3.10;2.90;;;5.20;1.00;;;;;;5050152;28;20995;-53
2023/02/26 09:59:03;;;;;;;7.00;1.90;;;5.10;1.00;;;;;;5045556;28;20454;-53
2023/02/26 10:01:45;;;;;;;3.90;1.67;;;4.90;1.00;;;;;;5054512;28;20437;-53
2023/02/26 10:04:23;;;;;;;8.27;2.97;;;5.10;1.00;;;;;;5047661;28;20542;-55
2023/02/26 10:07:04;;;;;;;3.93;2.90;;;5.10;1.00;;;;;;5046672;28;20533;-53
2023/02/26 10:09:35;;;;;;;5.73;2.70;;;5.10;1.00;;;;;;5048275;28;20520;-54
2023/02/26 10:12:16;;;;;;;6.00;1.70;;;5.30;1.00;;;;;;5044452;28;20447;-55
2023/02/26 10:15:02;;;;;;;2.67;2.00;;;5.30;1.00;;;;;;5045906;28;20484;-57
2023/02/26 10:17:41;;;;;;;2.40;2.10;;;5.60;1.00;;;;;;5047747;28;20473;-55
2023/02/26 10:20:19;;;;;;;2.60;1.60;;;5.20;1.00;;;;;;5042091;28;20497;-54
2023/02/26 10:22:56;;;;;;;8.00;4.77;;;4.80;1.00;;;;;;5047319;28;20538;-54
2023/02/26 10:25:34;;;;;;;5.20;3.77;;;4.60;1.00;;;;;;5053433;28;20439;-54
2023/02/26 10:28:40;;;;;;;2.60;2.27;;;4.30;1.00;;;;;;5048432;28;20465;-55
2023/02/26 10:31:17;;;;;;;3.83;2.67;;;4.30;1.00;;;;;;5046168;28;20577;-54
2023/02/26 10:33:52;;;;;;;3.30;1.90;;;4.50;1.00;;;;;;5047111;28;20549;-54
2023/02/26 10:37:01;;;;;;;4.20;1.57;;;4.40;1.00;;;;;;5049742;28;20627;-52
2023/02/26 10:39:32;;;;;;;3.73;1.60;;;4.40;1.00;;;;;;5050108;28;20451;-55
2023/02/26 10:42:04;;;;;;;3.13;1.93;;;4.30;1.00;;;;;;5052511;28;21038;-53
2023/02/26 10:44:40;;;;;;;3.30;1.17;;;4.30;1.00;;;;;;5049121;28;20446;-55
2023/02/26 10:47:18;;;;;;;2.10;1.10;;;4.00;1.00;;;;;;5050819;28;20453;-54
2023/02/26 10:49:59;;;;;;;4.43;1.90;;;4.10;1.00;;;;;;5051989;28;20457;-53
2023/02/26 10:52:27;;;;;;;3.40;1.47;;;4.00;1.00;;;;;;5050874;28;21055;-55
2023/02/26 10:54:58;;;;;;;4.70;1.97;;;4.00;1.00;;;;;;5053746;28;20599;-55
2023/02/26 10:57:31;;;;;;;5.80;1.60;;;4.00;1.00;;;;;;5050092;28;20471;-55
2023/02/26 10:59:59;;;;;;;4.40;2.00;;;4.10;1.00;;;;;;5056545;28;20458;-54
2023/02/26 11:02:37;;;;;;;8.13;1.73;;;4.20;1.00;;;;;;5052165;28;20450;-55
2023/02/26 11:05:05;;;;;;;2.90;2.10;;;4.30;1.00;;;;;;5046600;28;20448;-53
2023/02/26 11:07:35;;;;;;;3.37;2.10;;;4.30;1.00;;;;;;5047938;28;20932;-54
2023/02/26 11:10:02;;;;;;;0.70;0.70;;;4.50;1.00;;;;;;5046617;28;20891;-53
2023/02/26 11:12:27;;;;;;;3.83;1.93;;;4.90;1.00;;;;;;5045621;28;20450;-56
2023/02/26 11:14:53;;;;;;;2.93;1.20;;;5.20;1.00;;;;;;5046693;28;20450;-53
2023/02/26 11:17:26;;;;;;;4.20;1.80;;;5.50;1.00;;;;;;5044426;28;20784;-53
2023/02/26 11:19:56;;;;;;;2.73;1.50;;;5.20;1.00;;;;;;5049409;28;20188;-53
2023/02/26 11:22:26;;;;;;;3.57;1.60;;;4.90;1.00;;;;;;5050294;28;20486;-54
2023/02/26 11:24:52;;;;;;;4.10;1.73;;;4.70;1.00;;;;;;5047838;28;20520;-53
2023/02/26 11:27:29;;;;;;;2.90;1.50;;;4.80;1.00;;;;;;5047607;28;20612;-54
2023/02/26 11:30:05;;;;;;;1.27;0.73;;;4.70;1.00;;;;;;5045002;28;20592;-53
2023/02/26 11:32:36;;;;;;;4.67;1.80;;;4.50;1.00;;;;;;5047151;28;20450;-54
2023/02/26 11:35:05;;;;;;;6.43;3.10;;;4.40;1.00;;;;;;5045947;28;20457;-54
2023/02/26 11:37:38;;;;;;;2.90;2.07;;;4.40;1.00;;;;;;5053058;28;20529;-52
2023/02/26 11:40:17;;;;;;;2.87;1.80;;;4.50;1.00;;;;;;5046626;28;20454;-54
2023/02/26 11:42:57;;;;;;;1.53;1.27;;;4.60;1.00;;;;;;5047982;28;20450;-53
2023/02/26 11:45:23;;;;;;;3.03;1.50;;;5.00;1.00;;;;;;5050288;28;20447;-54
2023/02/26 11:48:02;;;;;;;3.13;1.30;;;5.20;1.00;;;;;;5047777;28;20453;-53
2023/02/26 11:50:29;;;;;;;3.00;1.40;;;5.40;1.00;;;;;;5055586;28;20446;-54
2023/02/26 11:53:07;;;;;;;1.27;1.03;;;5.30;1.00;;;;;;5048094;28;20482;-55
2023/02/26 11:55:38;;;;;;;1.57;0.90;;;5.10;1.00;;;;;;5049959;28;20799;-55
2023/02/26 11:58:16;;;;;;;3.07;1.17;;;5.00;1.00;;;;;;5055417;28;20542;-53
2023/02/26 12:00:43;;;;;;;3.10;1.70;;;5.00;1.00;;;;;;5054477;28;20923;-53
2023/02/26 12:03:22;;;;;;;2.50;1.60;;;4.80;1.00;;;;;;5057795;28;20535;-56
2023/02/26 12:05:54;;;;;;;3.37;1.60;;;4.80;1.00;;;;;;5049989;28;20458;-55
2023/02/26 12:08:30;;;;;;;4.63;1.47;;;4.80;1.00;;;;;;5054214;28;20529;-55
2023/02/26 12:11:15;;;;;;;5.10;2.10;;;4.60;1.00;;;;;;5055730;28;20460;-54
2023/02/26 12:13:59;;;;;;;2.13;1.40;;;4.70;1.00;;;;;;5054534;28;20449;-53
2023/02/26 12:16:54;;;;;;;2.90;1.00;;;4.60;1.00;;;;;;5048773;28;20948;-54
2023/02/26 12:19:53;;;;;;;7.63;2.97;;;4.70;1.00;;;;;;5043699;28;20590;-54
2023/02/26 12:22:42;;;;;;;5.70;2.10;;;5.00;1.00;;;;;;5049639;28;20867;-54
2023/02/26 12:25:29;;;;;;;2.33;1.10;;;5.30;1.00;;;;;;5051420;28;20562;-55
2023/02/26 12:28:29;;;;;;;2.00;1.20;;;5.20;1.00;;;;;;5050550;28;20449;-55
2023/02/26 12:31:21;;;;;;;2.23;1.30;;;5.10;1.00;;;;;;5045219;28;20491;-55
2023/02/26 12:34:05;;;;;;;2.50;1.37;;;5.10;1.00;;;;;;5048602;28;20453;-55
2023/02/26 12:36:49;;;;;;;3.57;1.83;;;5.00;1.00;;;;;;5054761;28;20486;-54
2023/02/26 12:39:37;;;;;;;3.77;1.30;;;5.20;1.00;;;;;;5049640;28;20443;-53
2023/02/26 12:42:17;;;;;;;2.70;1.37;;;5.10;1.00;;;;;;5052639;28;20441;-53
2023/02/26 12:45:07;;;;;;;1.90;1.70;;;4.90;1.00;;;;;;5050852;28;20445;-54
2023/02/26 12:47:43;;;;;;;2.43;1.50;;;5.10;1.00;;;;;;5047257;28;20458;-56
2023/02/26 12:50:33;;;;;;;1.80;1.30;;;5.30;1.00;;;;;;5054986;28;20453;-53
2023/02/26 12:53:32;;;;;;;1.83;1.30;;;5.30;1.00;;;;;;5052441;28;20473;-55
2023/02/26 12:56:09;;;;;;;1.23;1.13;;;5.10;1.00;;;;;;5050468;28;20589;-56
2023/02/26 12:59:09;;;;;;;2.03;0.83;;;4.90;1.00;;;;;;5051622;28;20466;-54
2023/02/26 13:01:49;;;;;;;1.53;0.93;;;4.50;1.00;;;;;;5051411;28;21077;-54
2023/02/26 13:04:28;;;;;;;1.50;1.23;;;4.30;1.00;;;;;;5052931;28;20722;-55
2023/02/26 13:07:12;;;;;;;4.77;1.27;;;4.20;1.00;;;;;;5046739;28;20640;-56
2023/02/26 13:10:13;;;;;;;1.87;1.23;;;4.30;1.00;;;;;;5051122;28;20480;-55
2023/02/26 13:12:51;;;;;;;2.30;1.10;;;4.40;1.00;;;;;;5062445;28;20989;-56
2023/02/26 13:15:39;;;;;;;2.60;1.47;;;4.70;1.00;;;;;;5050297;28;20951;-54
2023/02/26 13:18:17;;;;;;;2.67;1.67;;;4.70;1.00;;;;;;5053496;28;20505;-53
2023/02/26 13:20:59;;;;;;;3.27;1.67;;;4.80;1.00;;;;;;5051520;28;20469;-53
2023/02/26 13:23:32;;;;;;;2.57;1.43;;;4.90;1.00;;;;;;5057401;28;20530;-55
2023/02/26 13:26:06;;;;;;;4.30;1.40;;;5.00;1.00;;;;;;5058639;28;20478;-53
2023/02/26 13:28:53;;;;;;;4.17;1.20;;;5.00;1.00;;;;;;5052361;28;20991;-54
2023/02/26 13:31:34;;;;;;;10.23;1.53;;;5.10;1.00;;;;;;5051570;28;20446;-53
2023/02/26 13:34:14;;;;;;;3.57;1.50;;;5.10;1.00;;;;;;5049002;28;20445;-55